createdAt,value
2017-05-29T00:01:19.707Z,18.70
2017-05-29T00:03:47.248Z,18.70
2017-05-29T00:06:14.795Z,18.70
2017-05-29T00:08:43.132Z,18.60
2017-05-29T00:11:10.679Z,18.50
2017-05-29T00:13:38.247Z,18.60
2017-05-29T00:16:05.797Z,18.40
2017-05-29T00:18:34.130Z,18.40
2017-05-29T00:21:11.452Z,18.40
2017-05-29T00:23:39.789Z,18.40
2017-05-29T00:26:08.103Z,18.30
2017-05-29T00:28:36.443Z,18.30
2017-05-29T00:31:04.755Z,18.20
2017-05-29T00:33:33.070Z,18.10
2017-05-29T00:36:01.378Z,18.10
2017-05-29T00:38:29.689Z,18.10
2017-05-29T00:40:57.259Z,18.10
2017-05-29T00:43:24.799Z,18.10
2017-05-29T00:45:52.352Z,18.00
2017-05-29T00:48:20.658Z,17.90
2017-05-29T00:50:48.974Z,17.90
2017-05-29T00:53:16.514Z,17.80
2017-05-29T00:55:44.088Z,17.80
2017-05-29T00:58:12.390Z,17.70
2017-05-29T01:00:40.708Z,17.60
2017-05-29T01:03:09.032Z,17.60
2017-05-29T01:05:36.571Z,17.60
2017-05-29T01:08:04.874Z,17.50
2017-05-29T01:10:32.408Z,17.50
2017-05-29T01:13:00.714Z,17.40
2017-05-29T01:15:29.026Z,17.40
2017-05-29T01:17:57.363Z,17.30
2017-05-29T01:20:25.678Z,17.30
2017-05-29T01:22:53.990Z,17.30
2017-05-29T01:25:22.297Z,17.30
2017-05-29T01:27:49.835Z,17.30
2017-05-29T01:30:18.144Z,17.20
2017-05-29T01:32:45.703Z,17.20
2017-05-29T01:35:14.015Z,17.20
2017-05-29T01:37:42.323Z,17.20
2017-05-29T01:40:10.662Z,17.10
2017-05-29T01:42:38.978Z,17.10
2017-05-29T01:45:07.318Z,17.00
2017-05-29T01:47:35.622Z,17.10
2017-05-29T01:50:03.931Z,17.00
2017-05-29T01:52:31.475Z,17.00
2017-05-29T01:54:59.782Z,16.90
2017-05-29T01:57:28.095Z,16.90
2017-05-29T01:59:55.640Z,16.90
2017-05-29T02:02:23.982Z,16.90
2017-05-29T02:04:52.287Z,16.80
2017-05-29T02:07:20.627Z,16.80
2017-05-29T02:09:48.175Z,16.80
2017-05-29T02:12:15.723Z,16.70
2017-05-29T02:14:43.267Z,16.80
2017-05-29T02:17:11.576Z,16.80
2017-05-29T02:19:39.142Z,16.80
2017-05-29T02:22:07.445Z,16.80
2017-05-29T02:24:35.023Z,16.70
2017-05-29T02:27:02.575Z,16.80
2017-05-29T02:29:30.908Z,16.80
2017-05-29T02:31:58.462Z,16.80
2017-05-29T02:34:26.003Z,16.70
2017-05-29T02:36:54.315Z,16.60
2017-05-29T02:39:22.623Z,16.60
2017-05-29T02:41:50.951Z,16.50
2017-05-29T02:44:18.486Z,16.50
2017-05-29T02:46:46.119Z,16.50
2017-05-29T02:49:14.435Z,16.60
2017-05-29T02:51:42.001Z,16.60
2017-05-29T02:54:10.357Z,16.70
2017-05-29T02:56:38.739Z,16.70
2017-05-29T02:59:07.069Z,16.50
2017-05-29T03:01:34.655Z,16.50
2017-05-29T03:04:02.241Z,16.40
2017-05-29T03:06:30.595Z,16.30
2017-05-29T03:08:58.933Z,16.40
2017-05-29T03:11:26.502Z,16.40
2017-05-29T03:13:54.884Z,16.40
2017-05-29T03:16:23.195Z,16.50
2017-05-29T03:18:51.532Z,16.50
2017-05-29T03:21:19.859Z,16.50
2017-05-29T03:23:47.405Z,16.50
2017-05-29T03:26:14.954Z,16.60
2017-05-29T03:28:43.263Z,16.70
2017-05-29T03:31:10.863Z,16.80
2017-05-29T03:33:38.426Z,16.80
2017-05-29T03:36:06.763Z,16.80
2017-05-29T03:38:35.083Z,16.80
2017-05-29T03:41:03.440Z,16.70
2017-05-29T03:43:31.018Z,16.70
2017-05-29T03:45:58.588Z,16.70
2017-05-29T03:48:26.937Z,16.70
2017-05-29T03:50:55.257Z,16.70
2017-05-29T03:53:22.884Z,16.70
2017-05-29T03:55:50.441Z,16.60
2017-05-29T03:58:18.775Z,16.70
2017-05-29T04:00:46.323Z,16.70
2017-05-29T04:03:13.925Z,16.70
2017-05-29T04:05:41.476Z,16.70
2017-05-29T04:08:09.816Z,16.70
2017-05-29T04:10:37.417Z,16.70
2017-05-29T04:13:05.727Z,16.80
2017-05-29T04:15:34.051Z,16.70
2017-05-29T04:18:02.422Z,16.80
2017-05-29T04:20:30.000Z,16.80
2017-05-29T04:22:58.320Z,16.90
2017-05-29T04:25:25.886Z,16.90
2017-05-29T04:27:54.198Z,16.90
2017-05-29T04:30:21.769Z,16.90
2017-05-29T04:32:49.316Z,16.90
2017-05-29T04:35:16.889Z,17.10
2017-05-29T04:37:45.203Z,17.40
2017-05-29T04:40:12.759Z,17.40
2017-05-29T04:42:40.316Z,17.50
2017-05-29T04:45:08.624Z,17.70
2017-05-29T04:47:36.970Z,17.80
2017-05-29T04:50:05.275Z,17.80
2017-05-29T04:52:33.606Z,17.90
2017-05-29T04:55:01.146Z,17.90
2017-05-29T04:57:29.490Z,17.60
2017-05-29T04:59:57.821Z,17.70
2017-05-29T05:02:26.131Z,17.70
2017-05-29T05:04:53.679Z,17.70
2017-05-29T05:07:21.991Z,17.90
2017-05-29T05:09:49.555Z,17.90
2017-05-29T05:12:17.874Z,18.40
2017-05-29T05:14:45.438Z,18.40
2017-05-29T05:17:13.739Z,20.20
2017-05-29T05:19:41.310Z,20.20
2017-05-29T05:22:08.851Z,20.70
2017-05-29T05:24:36.395Z,20.40
2017-05-29T05:27:04.707Z,19.60
2017-05-29T05:29:33.022Z,19.40
2017-05-29T05:32:01.331Z,19.00
2017-05-29T05:34:28.878Z,19.00
2017-05-29T05:36:57.198Z,18.80
2017-05-29T05:39:25.507Z,18.80
2017-05-29T05:41:53.847Z,19.00
2017-05-29T05:44:22.265Z,19.30
2017-05-29T05:46:49.856Z,19.30
2017-05-29T05:49:18.240Z,19.40
2017-05-29T05:51:46.191Z,19.40
2017-05-29T05:54:14.532Z,19.10
2017-05-29T05:56:42.855Z,19.00
2017-05-29T05:59:10.431Z,19.00
2017-05-29T06:01:38.751Z,19.10
2017-05-29T06:04:06.298Z,19.10
2017-05-29T06:06:33.855Z,19.00
2017-05-29T06:09:02.160Z,19.20
2017-05-29T06:11:30.476Z,19.40
2017-05-29T06:13:58.022Z,19.40
2017-05-29T06:16:25.585Z,19.70
2017-05-29T06:18:53.894Z,20.00
2017-05-29T06:21:21.459Z,20.00
2017-05-29T06:23:49.763Z,20.50
2017-05-29T06:26:18.106Z,20.60
2017-05-29T06:28:46.413Z,20.80
2017-05-29T06:31:13.950Z,20.80
2017-05-29T06:33:41.494Z,20.90
2017-05-29T06:36:09.042Z,20.90
2017-05-29T06:38:37.347Z,20.80
2017-05-29T06:41:05.659Z,20.60
2017-05-29T06:43:33.995Z,20.30
2017-05-29T06:46:02.302Z,20.40
2017-05-29T06:48:30.632Z,20.60
2017-05-29T06:50:58.939Z,20.80
2017-05-29T06:53:26.483Z,20.70
2017-05-29T06:55:54.790Z,20.70
2017-05-29T06:58:23.095Z,20.60
2017-05-29T07:00:51.439Z,20.70
2017-05-29T07:03:19.755Z,20.70
2017-05-29T07:05:48.102Z,21.00
2017-05-29T07:08:16.415Z,21.10
2017-05-29T07:10:44.723Z,21.10
2017-05-29T07:13:12.267Z,21.00
2017-05-29T07:15:39.807Z,21.00
2017-05-29T07:18:08.447Z,21.30
2017-05-29T07:20:36.763Z,21.30
2017-05-29T07:23:05.107Z,21.60
2017-05-29T07:25:33.427Z,21.50
2017-05-29T07:28:00.988Z,21.50
2017-05-29T07:30:29.295Z,21.60
2017-05-29T07:32:57.605Z,22.00
2017-05-29T07:35:25.912Z,22.20
2017-05-29T07:37:54.228Z,22.40
2017-05-29T07:40:22.563Z,22.40
2017-05-29T07:42:50.863Z,22.30
2017-05-29T07:45:18.407Z,22.30
2017-05-29T07:47:46.722Z,22.80
2017-05-29T07:50:14.262Z,22.80
2017-05-29T07:52:41.810Z,22.80
2017-05-29T07:55:09.355Z,23.70
2017-05-29T07:57:37.716Z,23.90
2017-05-29T08:00:05.258Z,23.90
2017-05-29T08:02:32.803Z,24.30
2017-05-29T08:05:01.116Z,24.90
2017-05-29T08:07:29.422Z,24.60
2017-05-29T08:09:56.970Z,24.60
2017-05-29T08:12:24.516Z,25.10
2017-05-29T08:14:52.090Z,25.20
2017-05-29T08:17:20.386Z,25.00
2017-05-29T08:19:48.695Z,25.10
2017-05-29T08:22:17.022Z,24.80
2017-05-29T08:24:45.337Z,25.20
2017-05-29T08:27:13.647Z,25.10
2017-05-29T08:29:41.189Z,25.10
2017-05-29T08:32:09.542Z,25.60
2017-05-29T08:34:37.852Z,25.60
2017-05-29T08:37:05.390Z,25.50
2017-05-29T08:39:33.695Z,26.60
2017-05-29T08:42:02.000Z,27.10
2017-05-29T08:44:29.542Z,27.10
2017-05-29T08:46:57.851Z,27.00
2017-05-29T08:49:26.183Z,27.60
2017-05-29T08:51:54.489Z,27.40
2017-05-29T08:54:22.794Z,27.30
2017-05-29T08:56:51.100Z,27.60
2017-05-29T08:59:19.407Z,27.40
2017-05-29T09:01:46.955Z,27.40
2017-05-29T09:04:15.271Z,27.70
2017-05-29T09:06:43.599Z,28.30
2017-05-29T09:09:11.904Z,28.60
2017-05-29T09:11:39.479Z,28.60
2017-05-29T09:14:07.029Z,28.90
2017-05-29T09:16:35.346Z,28.80
2017-05-29T09:19:03.667Z,28.80
2017-05-29T09:21:31.219Z,28.80
2017-05-29T09:23:58.758Z,28.50
2017-05-29T09:26:27.067Z,29.10
2017-05-29T09:28:55.404Z,29.50
2017-05-29T09:31:22.943Z,29.40
2017-05-29T09:33:50.527Z,29.50
2017-05-29T09:36:18.831Z,29.10
2017-05-29T09:38:47.149Z,29.00
2017-05-29T09:41:14.697Z,29.00
2017-05-29T09:43:42.255Z,29.30
2017-05-29T09:46:10.592Z,29.10
2017-05-29T09:48:38.899Z,29.30
2017-05-29T09:51:06.470Z,29.30
2017-05-29T09:53:34.031Z,28.90
2017-05-29T09:56:02.351Z,29.10
2017-05-29T09:58:30.666Z,29.10
2017-05-29T10:00:58.215Z,29.10
2017-05-29T10:03:25.770Z,29.40
2017-05-29T10:05:54.091Z,29.10
2017-05-29T10:08:22.404Z,29.30
2017-05-29T10:10:50.774Z,29.90
2017-05-29T10:13:18.379Z,29.80
2017-05-29T10:15:46.695Z,29.10
2017-05-29T10:18:15.007Z,29.00
2017-05-29T10:20:43.320Z,28.30
2017-05-29T10:23:11.637Z,29.10
2017-05-29T10:25:39.957Z,29.00
2017-05-29T10:28:08.270Z,29.10
2017-05-29T10:30:36.582Z,28.60
2017-05-29T10:33:04.130Z,28.60
2017-05-29T10:35:32.485Z,29.10
2017-05-29T10:38:00.808Z,29.30
2017-05-29T10:40:29.119Z,29.20
2017-05-29T10:42:56.679Z,29.10
2017-05-29T10:45:24.999Z,29.40
2017-05-29T10:47:53.319Z,29.40
2017-05-29T10:50:20.876Z,29.40
2017-05-29T10:52:49.191Z,28.70
2017-05-29T10:55:17.510Z,28.60
2017-05-29T10:57:45.830Z,29.30
2017-05-29T11:00:13.388Z,29.30
2017-05-29T11:02:41.745Z,29.50
2017-05-29T11:05:09.296Z,29.60
2017-05-29T11:07:37.612Z,29.10
2017-05-29T11:10:05.931Z,29.50
2017-05-29T11:12:34.243Z,29.20
2017-05-29T11:15:02.595Z,29.30
2017-05-29T11:17:31.128Z,29.50
2017-05-29T11:19:59.542Z,29.10
2017-05-29T11:22:27.867Z,28.80
2017-05-29T11:24:56.214Z,28.70
2017-05-29T11:27:24.579Z,29.10
2017-05-29T11:29:52.898Z,28.70
2017-05-29T11:32:21.239Z,28.90
2017-05-29T11:34:49.550Z,28.60
2017-05-29T11:37:17.863Z,29.40
2017-05-29T11:39:45.410Z,29.40
2017-05-29T11:42:13.731Z,29.60
2017-05-29T11:44:41.279Z,29.60
2017-05-29T11:47:09.285Z,29.40
2017-05-29T11:49:37.590Z,30.00
2017-05-29T11:52:05.167Z,30.00
2017-05-29T11:54:32.715Z,29.80
2017-05-29T11:57:01.022Z,29.90
2017-05-29T11:59:28.575Z,29.90
2017-05-29T12:01:56.893Z,29.60
2017-05-29T12:04:25.218Z,29.40
2017-05-29T12:06:53.536Z,29.90
2017-05-29T12:09:21.842Z,29.80
2017-05-29T12:11:50.169Z,29.90
2017-05-29T12:14:18.488Z,30.10
2017-05-29T12:16:46.054Z,30.00
2017-05-29T12:19:14.386Z,30.20
2017-05-29T12:21:42.699Z,30.30
2017-05-29T12:24:11.015Z,30.60
2017-05-29T12:26:38.558Z,30.60
2017-05-29T12:29:06.883Z,30.50
2017-05-29T12:31:35.195Z,29.80
2017-05-29T12:34:02.748Z,29.80
2017-05-29T12:36:31.066Z,30.60
2017-05-29T12:38:59.368Z,30.50
2017-05-29T12:41:27.708Z,30.00
2017-05-29T12:43:56.006Z,30.50
2017-05-29T12:46:23.558Z,30.40
2017-05-29T12:48:51.882Z,30.00
2017-05-29T12:51:19.448Z,30.00
2017-05-29T12:53:46.990Z,30.70
2017-05-29T12:56:14.534Z,30.60
2017-05-29T12:58:42.842Z,30.20
2017-05-29T13:01:11.142Z,30.50
2017-05-29T13:03:39.486Z,30.50
2017-05-29T13:06:07.795Z,30.70
2017-05-29T13:08:36.110Z,30.50
2017-05-29T13:11:03.654Z,30.50
2017-05-29T13:13:31.958Z,30.50
2017-05-29T13:16:00.266Z,30.30
2017-05-29T13:18:28.580Z,30.20
2017-05-29T13:20:56.118Z,30.20
2017-05-29T13:23:24.429Z,30.50
2017-05-29T13:25:52.762Z,30.50
2017-05-29T13:28:21.067Z,30.10
2017-05-29T13:30:49.427Z,30.40
2017-05-29T13:33:17.030Z,30.30
2017-05-29T13:35:44.598Z,30.20
2017-05-29T13:38:12.907Z,31.00
2017-05-29T13:40:41.231Z,30.90
2017-05-29T13:43:10.763Z,30.20
2017-05-29T13:45:39.068Z,30.60
2017-05-29T13:48:07.387Z,31.00
2017-05-29T13:50:34.943Z,30.90
2017-05-29T13:53:03.289Z,31.00
2017-05-29T13:55:30.835Z,31.00
2017-05-29T13:57:59.163Z,31.20
2017-05-29T14:00:27.481Z,31.20
2017-05-29T14:02:55.914Z,31.20
2017-05-29T14:05:24.228Z,31.60
2017-05-29T14:07:52.538Z,32.00
2017-05-29T14:10:21.071Z,31.60
2017-05-29T14:12:49.436Z,31.40
2017-05-29T14:15:17.748Z,31.30
2017-05-29T14:17:46.069Z,31.30
2017-05-29T14:20:13.619Z,31.30
2017-05-29T14:22:41.928Z,31.60
2017-05-29T14:25:09.467Z,31.60
2017-05-29T14:27:37.776Z,31.50
2017-05-29T14:30:05.319Z,31.40
2017-05-29T14:32:32.904Z,31.10
2017-05-29T14:35:01.211Z,31.30
2017-05-29T14:37:29.539Z,31.50
2017-05-29T14:39:57.848Z,31.70
2017-05-29T14:42:25.395Z,31.70
2017-05-29T14:44:52.936Z,32.00
2017-05-29T14:47:21.243Z,32.00
2017-05-29T14:49:49.546Z,32.20
2017-05-29T14:52:17.095Z,32.20
2017-05-29T14:54:45.414Z,31.90
2017-05-29T14:57:13.720Z,32.10
2017-05-29T14:59:42.062Z,31.90
2017-05-29T15:02:09.612Z,31.90
2017-05-29T15:04:37.946Z,31.70
2017-05-29T15:07:05.495Z,31.60
2017-05-29T15:09:33.057Z,31.40
2017-05-29T15:12:01.366Z,30.70
2017-05-29T15:14:29.682Z,30.70
2017-05-29T15:16:57.998Z,30.90
2017-05-29T15:19:26.303Z,31.00
2017-05-29T15:21:54.626Z,31.00
2017-05-29T15:24:23.028Z,30.90
2017-05-29T15:26:51.406Z,30.80
2017-05-29T15:29:19.791Z,30.80
2017-05-29T15:31:48.123Z,30.90
2017-05-29T15:34:16.438Z,30.90
2017-05-29T15:36:44.026Z,30.90
2017-05-29T15:39:12.334Z,30.50
2017-05-29T15:41:39.878Z,30.70
2017-05-29T15:44:08.202Z,30.90
2017-05-29T15:46:36.520Z,30.90
2017-05-29T15:49:04.844Z,31.00
2017-05-29T15:51:33.150Z,30.90
2017-05-29T15:54:00.711Z,30.90
2017-05-29T15:56:29.096Z,31.00
2017-05-29T15:58:57.626Z,30.90
2017-05-29T16:01:25.933Z,31.00
2017-05-29T16:03:54.283Z,30.90
2017-05-29T16:06:22.597Z,30.70
2017-05-29T16:08:50.938Z,30.90
2017-05-29T16:11:19.252Z,30.90
2017-05-29T16:13:47.657Z,30.80
2017-05-29T16:16:15.975Z,30.60
2017-05-29T16:18:44.309Z,30.70
2017-05-29T16:21:12.628Z,30.60
2017-05-29T16:23:40.946Z,30.50
2017-05-29T16:26:09.340Z,30.50
2017-05-29T16:31:12.436Z,30.20
2017-05-29T16:33:40.751Z,30.50
2017-05-29T16:36:09.091Z,30.40
2017-05-29T16:38:37.491Z,30.30
2017-05-29T16:41:05.805Z,30.40
2017-05-29T16:43:34.152Z,30.20
2017-05-29T16:46:02.476Z,30.10
2017-05-29T16:48:30.812Z,30.00
2017-05-29T16:50:59.139Z,29.80
2017-05-29T16:53:27.483Z,29.90
2017-05-29T16:55:55.794Z,29.80
2017-05-29T16:58:24.161Z,29.90
2017-05-29T17:00:52.500Z,29.90
2017-05-29T17:03:20.831Z,29.70
2017-05-29T17:05:48.381Z,29.70
2017-05-29T17:08:16.697Z,29.60
2017-05-29T17:10:44.270Z,29.60
2017-05-29T17:13:11.820Z,29.60
2017-05-29T17:15:39.396Z,29.50
2017-05-29T17:18:07.722Z,29.30
2017-05-29T17:20:36.070Z,29.10
2017-05-29T17:23:03.621Z,29.10
2017-05-29T17:25:31.931Z,29.00
2017-05-29T17:28:00.255Z,28.90
2017-05-29T17:30:27.798Z,28.90
2017-05-29T17:32:55.358Z,29.00
2017-05-29T17:35:22.905Z,28.90
2017-05-29T17:37:51.244Z,29.00
2017-05-29T17:40:18.792Z,29.00
2017-05-29T17:42:46.364Z,29.00
2017-05-29T17:45:14.679Z,28.90
2017-05-29T17:47:43.037Z,28.90
2017-05-29T17:50:11.344Z,28.70
2017-05-29T17:52:38.897Z,28.70
2017-05-29T17:55:07.210Z,28.60
2017-05-29T17:57:34.759Z,28.60
2017-05-29T18:00:02.332Z,28.60
2017-05-29T18:02:30.733Z,28.50
2017-05-29T18:04:58.322Z,28.50
2017-05-29T18:07:26.636Z,28.50
2017-05-29T18:09:54.203Z,28.40
2017-05-29T18:12:22.515Z,28.40
2017-05-29T18:14:50.854Z,28.40
2017-05-29T18:17:19.175Z,28.30
2017-05-29T18:19:47.519Z,28.40
2017-05-29T18:22:15.831Z,28.40
2017-05-29T18:24:44.152Z,28.20
2017-05-29T18:27:12.846Z,28.20
2017-05-29T18:29:40.395Z,28.20
2017-05-29T18:32:07.938Z,28.20
2017-05-29T18:34:36.244Z,28.00
2017-05-29T18:37:03.794Z,28.00
2017-05-29T18:39:32.109Z,27.80
2017-05-29T18:41:59.686Z,27.80
2017-05-29T18:44:28.017Z,27.70
2017-05-29T18:46:55.569Z,27.70
2017-05-29T18:49:23.886Z,27.70
2017-05-29T18:51:52.239Z,27.60
2017-05-29T18:54:20.553Z,27.50
2017-05-29T18:56:48.099Z,27.50
2017-05-29T18:59:16.414Z,27.30
2017-05-29T19:01:43.966Z,27.30
2017-05-29T19:04:12.287Z,27.00
2017-05-29T19:06:40.600Z,26.80
2017-05-29T19:09:08.919Z,26.70
2017-05-29T19:11:36.468Z,26.70
2017-05-29T19:14:04.042Z,26.70
2017-05-29T19:16:31.650Z,26.70
2017-05-29T19:19:00.000Z,26.40
2017-05-29T19:21:28.387Z,26.30
2017-05-29T19:23:56.699Z,26.20
2017-05-29T19:26:25.003Z,26.10
2017-05-29T19:28:53.311Z,26.20
2017-05-29T19:31:21.630Z,25.90
2017-05-29T19:33:49.180Z,25.90
2017-05-29T19:36:16.731Z,26.00
2017-05-29T19:38:45.056Z,25.80
2017-05-29T19:41:12.786Z,25.80
2017-05-29T19:43:41.128Z,25.70
2017-05-29T19:46:09.494Z,25.80
2017-05-29T19:48:37.823Z,25.80
2017-05-29T19:51:06.146Z,25.60
2017-05-29T19:53:34.464Z,25.60
2017-05-29T19:56:02.016Z,25.60
2017-05-29T19:58:30.333Z,25.30
2017-05-29T20:00:58.648Z,25.20
2017-05-29T20:03:26.191Z,25.20
2017-05-29T20:05:53.743Z,25.10
2017-05-29T20:08:22.095Z,25.00
2017-05-29T20:13:24.332Z,25.00
2017-05-29T20:15:52.643Z,24.90
2017-05-29T20:18:21.008Z,24.80
2017-05-29T20:20:48.556Z,24.80
2017-05-29T20:23:16.111Z,24.80
2017-05-29T20:25:44.425Z,24.60
2017-05-29T20:28:12.739Z,24.60
2017-05-29T20:30:40.288Z,24.50
2017-05-29T20:33:07.838Z,24.50
2017-05-29T20:35:36.183Z,24.30
2017-05-29T20:38:04.499Z,24.30
2017-05-29T20:40:32.837Z,24.40
2017-05-29T20:43:01.155Z,24.30
2017-05-29T20:45:29.515Z,24.30
2017-05-29T20:47:57.883Z,24.10
2017-05-29T20:50:25.431Z,24.10
2017-05-29T20:52:52.986Z,24.10
2017-05-29T20:55:21.312Z,24.00
2017-05-29T20:57:49.663Z,23.90
2017-05-29T21:00:17.217Z,23.90
2017-05-29T21:02:45.559Z,23.80
2017-05-29T21:05:13.878Z,23.80
2017-05-29T21:07:42.246Z,23.70
2017-05-29T21:10:10.565Z,23.60
2017-05-29T21:12:38.922Z,23.60
2017-05-29T21:15:07.231Z,23.60
2017-05-29T21:17:35.551Z,23.60
2017-05-29T21:20:03.104Z,23.50
2017-05-29T21:22:31.417Z,23.40
2017-05-29T21:24:59.767Z,23.40
2017-05-29T21:27:28.083Z,23.30
2017-05-29T21:29:55.659Z,23.30
2017-05-29T21:32:23.974Z,23.20
2017-05-29T21:34:51.548Z,23.20
2017-05-29T21:37:19.893Z,23.30
2017-05-29T21:39:47.488Z,23.30
2017-05-29T21:42:15.059Z,23.30
2017-05-29T21:44:43.384Z,23.20
2017-05-29T21:47:11.714Z,23.20
2017-05-29T21:49:40.028Z,23.10
2017-05-29T21:52:08.363Z,22.90
2017-05-29T21:54:35.904Z,22.90
2017-05-29T21:57:03.475Z,22.90
2017-05-29T21:59:31.790Z,22.90
2017-05-29T22:01:59.370Z,22.90
2017-05-29T22:04:27.696Z,22.70
2017-05-29T22:06:56.038Z,22.70
2017-05-29T22:09:24.362Z,22.60
2017-05-29T22:11:52.722Z,22.50
2017-05-29T22:14:21.043Z,22.60
2017-05-29T22:16:48.624Z,22.50
2017-05-29T22:19:16.932Z,22.50
2017-05-29T22:21:44.484Z,22.50
2017-05-29T22:24:12.059Z,22.40
2017-05-29T22:26:40.397Z,22.40
2017-05-29T22:29:08.748Z,22.30
2017-05-29T22:31:36.320Z,22.30
2017-05-29T22:34:03.892Z,22.30
2017-05-29T22:36:32.215Z,22.20
2017-05-29T22:39:00.559Z,22.20
2017-05-29T22:41:28.873Z,22.30
2017-05-29T22:43:56.449Z,22.30
2017-05-29T22:46:24.007Z,22.40
2017-05-29T22:48:52.332Z,22.50
2017-05-29T22:51:20.645Z,22.50
2017-05-29T22:53:48.189Z,22.50
2017-05-29T22:56:15.742Z,22.50
2017-05-29T22:58:44.059Z,22.60
2017-05-29T23:01:11.631Z,22.60
2017-05-29T23:03:39.958Z,22.60
2017-05-29T23:06:08.275Z,22.60
2017-05-29T23:08:36.596Z,22.60
2017-05-29T23:11:04.154Z,22.60
2017-05-29T23:13:32.465Z,22.60
2017-05-29T23:16:00.785Z,22.50
2017-05-29T23:18:29.095Z,22.30
2017-05-29T23:20:56.654Z,22.30
2017-05-29T23:23:24.981Z,22.10
2017-05-29T23:25:52.533Z,22.10
2017-05-29T23:28:20.881Z,22.10
2017-05-29T23:30:48.435Z,22.10
2017-05-29T23:33:15.983Z,22.30
2017-05-29T23:35:44.294Z,22.40
2017-05-29T23:38:12.611Z,22.40
2017-05-29T23:40:40.926Z,22.20
2017-05-29T23:43:09.248Z,22.20
2017-05-29T23:45:36.794Z,22.20
2017-05-29T23:48:05.102Z,22.00
2017-05-29T23:50:32.647Z,22.00
2017-05-29T23:53:00.958Z,21.80
2017-05-29T23:55:29.270Z,21.70
2017-05-29T23:57:57.602Z,21.80
